sensor_id;sensor_type;location;lat;lon;timestamp;P1;durP1;ratioP1;P2;durP2;ratioP2
9374;SDS011;4727;51.202;6.344;2023-03-01T00:04:03;11.97;;;10.63;;
9374;SDS011;4727;51.202;6.344;2023-03-01T00:06:29;13.23;;;11.20;;
9374;SDS011;4727;51.202;6.344;2023-03-01T00:09:06;14.90;;;11.93;;
9374;SDS011;4727;51.202;6.344;2023-03-01T00:11:32;15.37;;;12.33;;
9374;SDS011;4727;51.202;6.344;2023-03-01T00:14:00;14.83;;;12.23;;
9374;SDS011;4727;51.202;6.344;2023-03-01T00:16:30;13.07;;;11.53;;
9374;SDS011;4727;51.202;6.344;2023-03-01T00:19:04;13.30;;;11.63;;
9374;SDS011;4727;51.202;6.344;2023-03-01T00:21:33;13.17;;;10.83;;
9374;SDS011;4727;51.202;6.344;2023-03-01T00:24:00;14.07;;;11.83;;
9374;SDS011;4727;51.202;6.344;2023-03-01T00:26:26;12.53;;;11.00;;
9374;SDS011;4727;51.202;6.344;2023-03-01T00:28:58;13.37;;;11.20;;
9374;SDS011;4727;51.202;6.344;2023-03-01T00:31:29;13.00;;;11.60;;
9374;SDS011;4727;51.202;6.344;2023-03-01T00:33:57;13.80;;;11.70;;
9374;SDS011;4727;51.202;6.344;2023-03-01T00:36:27;12.30;;;11.07;;
9374;SDS011;4727;51.202;6.344;2023-03-01T00:38:54;13.63;;;10.80;;
9374;SDS011;4727;51.202;6.344;2023-03-01T00:41:29;13.30;;;11.10;;
9374;SDS011;4727;51.202;6.344;2023-03-01T00:43:59;13.40;;;10.40;;
9374;SDS011;4727;51.202;6.344;2023-03-01T00:46:28;12.37;;;10.73;;
9374;SDS011;4727;51.202;6.344;2023-03-01T00:48:58;11.37;;;9.97;;
9374;SDS011;4727;51.202;6.344;2023-03-01T00:51:27;12.93;;;10.40;;
9374;SDS011;4727;51.202;6.344;2023-03-01T00:53:54;11.57;;;10.13;;
9374;SDS011;4727;51.202;6.344;2023-03-01T00:56:21;11.47;;;10.23;;
9374;SDS011;4727;51.202;6.344;2023-03-01T00:58:47;11.73;;;10.30;;
9374;SDS011;4727;51.202;6.344;2023-03-01T01:01:14;11.87;;;10.67;;
9374;SDS011;4727;51.202;6.344;2023-03-01T01:06:13;13.37;;;10.60;;
9374;SDS011;4727;51.202;6.344;2023-03-01T01:08:39;11.53;;;9.73;;
9374;SDS011;4727;51.202;6.344;2023-03-01T01:11:11;10.93;;;9.83;;
9374;SDS011;4727;51.202;6.344;2023-03-01T01:13:40;15.40;;;10.57;;
9374;SDS011;4727;51.202;6.344;2023-03-01T01:16:09;11.60;;;10.40;;
9374;SDS011;4727;51.202;6.344;2023-03-01T01:18:35;11.00;;;9.80;;
9374;SDS011;4727;51.202;6.344;2023-03-01T01:21:08;12.47;;;10.17;;
9374;SDS011;4727;51.202;6.344;2023-03-01T01:23:35;15.33;;;10.80;;
9374;SDS011;4727;51.202;6.344;2023-03-01T01:26:11;13.93;;;11.37;;
9374;SDS011;4727;51.202;6.344;2023-03-01T01:28:41;13.40;;;10.97;;
9374;SDS011;4727;51.202;6.344;2023-03-01T01:31:10;11.17;;;10.17;;
9374;SDS011;4727;51.202;6.344;2023-03-01T01:33:36;12.13;;;10.83;;
9374;SDS011;4727;51.202;6.344;2023-03-01T01:36:06;12.70;;;11.40;;
9374;SDS011;4727;51.202;6.344;2023-03-01T01:38:33;13.20;;;10.80;;
9374;SDS011;4727;51.202;6.344;2023-03-01T01:41:08;11.80;;;10.63;;
9374;SDS011;4727;51.202;6.344;2023-03-01T01:43:39;12.60;;;11.30;;
9374;SDS011;4727;51.202;6.344;2023-03-01T01:46:26;12.50;;;10.67;;
9374;SDS011;4727;51.202;6.344;2023-03-01T01:51:28;13.23;;;11.17;;
9374;SDS011;4727;51.202;6.344;2023-03-01T01:54:05;12.93;;;11.13;;
9374;SDS011;4727;51.202;6.344;2023-03-01T01:56:34;12.23;;;10.93;;
9374;SDS011;4727;51.202;6.344;2023-03-01T01:59:10;12.43;;;11.13;;
9374;SDS011;4727;51.202;6.344;2023-03-01T02:01:39;12.33;;;11.07;;
9374;SDS011;4727;51.202;6.344;2023-03-01T02:04:05;11.87;;;10.67;;
9374;SDS011;4727;51.202;6.344;2023-03-01T02:06:37;12.27;;;10.90;;
9374;SDS011;4727;51.202;6.344;2023-03-01T02:09:11;13.10;;;11.80;;
9374;SDS011;4727;51.202;6.344;2023-03-01T02:11:41;16.70;;;11.33;;
9374;SDS011;4727;51.202;6.344;2023-03-01T02:14:10;14.27;;;11.23;;
9374;SDS011;4727;51.202;6.344;2023-03-01T02:16:38;12.80;;;11.57;;
9374;SDS011;4727;51.202;6.344;2023-03-01T02:19:17;13.67;;;11.23;;
9374;SDS011;4727;51.202;6.344;2023-03-01T02:21:49;12.60;;;11.33;;
9374;SDS011;4727;51.202;6.344;2023-03-01T02:24:27;13.70;;;11.03;;
9374;SDS011;4727;51.202;6.344;2023-03-01T02:26:58;12.53;;;11.33;;
9374;SDS011;4727;51.202;6.344;2023-03-01T02:29:27;13.20;;;11.73;;
9374;SDS011;4727;51.202;6.344;2023-03-01T02:32:12;13.20;;;11.80;;
9374;SDS011;4727;51.202;6.344;2023-03-01T02:34:49;14.57;;;11.67;;
9374;SDS011;4727;51.202;6.344;2023-03-01T02:37:15;15.80;;;12.03;;
9374;SDS011;4727;51.202;6.344;2023-03-01T02:39:48;15.40;;;11.93;;
9374;SDS011;4727;51.202;6.344;2023-03-01T02:42:22;13.03;;;11.70;;
9374;SDS011;4727;51.202;6.344;2023-03-01T02:44:51;15.07;;;11.73;;
9374;SDS011;4727;51.202;6.344;2023-03-01T02:47:22;14.30;;;12.03;;
9374;SDS011;4727;51.202;6.344;2023-03-01T02:49:51;14.40;;;12.43;;
9374;SDS011;4727;51.202;6.344;2023-03-01T02:52:33;14.67;;;12.10;;
9374;SDS011;4727;51.202;6.344;2023-03-01T02:57:32;13.70;;;12.23;;
9374;SDS011;4727;51.202;6.344;2023-03-01T03:00:14;13.97;;;11.47;;
9374;SDS011;4727;51.202;6.344;2023-03-01T03:02:47;15.13;;;12.17;;
9374;SDS011;4727;51.202;6.344;2023-03-01T03:05:18;15.53;;;12.73;;
9374;SDS011;4727;51.202;6.344;2023-03-01T03:07:47;12.80;;;11.50;;
9374;SDS011;4727;51.202;6.344;2023-03-01T03:10:26;16.03;;;12.47;;
9374;SDS011;4727;51.202;6.344;2023-03-01T03:13:01;14.67;;;13.13;;
9374;SDS011;4727;51.202;6.344;2023-03-01T03:15:27;14.43;;;11.70;;
9374;SDS011;4727;51.202;6.344;2023-03-01T03:17:54;17.00;;;12.50;;
9374;SDS011;4727;51.202;6.344;2023-03-01T03:20:24;13.00;;;11.60;;
9374;SDS011;4727;51.202;6.344;2023-03-01T03:22:58;15.77;;;12.63;;
9374;SDS011;4727;51.202;6.344;2023-03-01T03:25:27;13.57;;;12.20;;
9374;SDS011;4727;51.202;6.344;2023-03-01T03:27:56;18.10;;;12.37;;
9374;SDS011;4727;51.202;6.344;2023-03-01T03:30:28;14.43;;;12.73;;
9374;SDS011;4727;51.202;6.344;2023-03-01T03:32:55;17.13;;;12.87;;
9374;SDS011;4727;51.202;6.344;2023-03-01T03:35:28;16.47;;;12.60;;
9374;SDS011;4727;51.202;6.344;2023-03-01T03:38:07;15.53;;;12.37;;
9374;SDS011;4727;51.202;6.344;2023-03-01T03:40:42;18.30;;;13.40;;
9374;SDS011;4727;51.202;6.344;2023-03-01T03:43:18;15.60;;;12.73;;
9374;SDS011;4727;51.202;6.344;2023-03-01T03:45:48;21.20;;;14.03;;
9374;SDS011;4727;51.202;6.344;2023-03-01T03:51:00;14.97;;;12.73;;
9374;SDS011;4727;51.202;6.344;2023-03-01T03:53:39;17.57;;;14.33;;
9374;SDS011;4727;51.202;6.344;2023-03-01T03:56:05;19.10;;;15.33;;
9374;SDS011;4727;51.202;6.344;2023-03-01T03:58:34;15.73;;;13.43;;
9374;SDS011;4727;51.202;6.344;2023-03-01T04:01:14;15.83;;;14.13;;
9374;SDS011;4727;51.202;6.344;2023-03-01T04:03:45;17.30;;;14.53;;
9374;SDS011;4727;51.202;6.344;2023-03-01T04:06:12;15.57;;;13.87;;
9374;SDS011;4727;51.202;6.344;2023-03-01T04:08:38;15.87;;;14.27;;
9374;SDS011;4727;51.202;6.344;2023-03-01T04:11:09;16.07;;;14.47;;
9374;SDS011;4727;51.202;6.344;2023-03-01T04:13:57;17.10;;;13.17;;
9374;SDS011;4727;51.202;6.344;2023-03-01T04:16:27;17.00;;;13.77;;
9374;SDS011;4727;51.202;6.344;2023-03-01T04:18:55;15.20;;;13.57;;
9374;SDS011;4727;51.202;6.344;2023-03-01T04:21:24;16.57;;;13.70;;
9374;SDS011;4727;51.202;6.344;2023-03-01T04:23:57;16.87;;;13.60;;
9374;SDS011;4727;51.202;6.344;2023-03-01T04:26:30;15.97;;;13.53;;
9374;SDS011;4727;51.202;6.344;2023-03-01T04:28:59;14.13;;;12.70;;
9374;SDS011;4727;51.202;6.344;2023-03-01T04:31:25;16.53;;;13.37;;
9374;SDS011;4727;51.202;6.344;2023-03-01T04:33:57;18.30;;;14.37;;
9374;SDS011;4727;51.202;6.344;2023-03-01T04:36:28;16.13;;;14.43;;
9374;SDS011;4727;51.202;6.344;2023-03-01T04:41:51;15.43;;;13.80;;
9374;SDS011;4727;51.202;6.344;2023-03-01T04:44:23;16.37;;;14.13;;
9374;SDS011;4727;51.202;6.344;2023-03-01T04:46:52;16.70;;;14.40;;
9374;SDS011;4727;51.202;6.344;2023-03-01T04:49:23;18.70;;;14.17;;
9374;SDS011;4727;51.202;6.344;2023-03-01T04:51:51;17.20;;;15.37;;
9374;SDS011;4727;51.202;6.344;2023-03-01T04:54:19;15.53;;;13.37;;
9374;SDS011;4727;51.202;6.344;2023-03-01T04:56:48;17.57;;;14.17;;
9374;SDS011;4727;51.202;6.344;2023-03-01T04:59:24;16.07;;;14.33;;
9374;SDS011;4727;51.202;6.344;2023-03-01T05:01:53;15.87;;;12.97;;
9374;SDS011;4727;51.202;6.344;2023-03-01T05:04:25;15.00;;;13.47;;
9374;SDS011;4727;51.202;6.344;2023-03-01T05:06:59;15.43;;;13.17;;
9374;SDS011;4727;51.202;6.344;2023-03-01T05:09:30;14.30;;;12.83;;
9374;SDS011;4727;51.202;6.344;2023-03-01T05:12:04;15.73;;;12.80;;
9374;SDS011;4727;51.202;6.344;2023-03-01T05:14:34;16.27;;;13.37;;
9374;SDS011;4727;51.202;6.344;2023-03-01T05:17:14;15.60;;;13.33;;
9374;SDS011;4727;51.202;6.344;2023-03-01T05:19:51;15.70;;;13.50;;
9374;SDS011;4727;51.202;6.344;2023-03-01T05:22:19;14.67;;;12.20;;
9374;SDS011;4727;51.202;6.344;2023-03-01T05:27:25;14.40;;;12.37;;
9374;SDS011;4727;51.202;6.344;2023-03-01T05:29:53;16.73;;;13.10;;
9374;SDS011;4727;51.202;6.344;2023-03-01T05:32:19;14.97;;;13.27;;
9374;SDS011;4727;51.202;6.344;2023-03-01T05:34:54;15.23;;;12.97;;
9374;SDS011;4727;51.202;6.344;2023-03-01T05:37:32;15.47;;;12.57;;
9374;SDS011;4727;51.202;6.344;2023-03-01T05:40:00;15.87;;;12.70;;
9374;SDS011;4727;51.202;6.344;2023-03-01T05:42:38;15.97;;;13.30;;
9374;SDS011;4727;51.202;6.344;2023-03-01T05:48:08;17.43;;;12.50;;
9374;SDS011;4727;51.202;6.344;2023-03-01T05:50:47;15.70;;;13.10;;
9374;SDS011;4727;51.202;6.344;2023-03-01T05:53:19;15.47;;;13.20;;
9374;SDS011;4727;51.202;6.344;2023-03-01T05:55:55;15.17;;;12.97;;
9374;SDS011;4727;51.202;6.344;2023-03-01T05:58:26;15.87;;;13.50;;
9374;SDS011;4727;51.202;6.344;2023-03-01T06:00:52;16.90;;;13.90;;
9374;SDS011;4727;51.202;6.344;2023-03-01T06:03:31;14.73;;;13.00;;
9374;SDS011;4727;51.202;6.344;2023-03-01T06:05:57;18.73;;;14.23;;
9374;SDS011;4727;51.202;6.344;2023-03-01T06:08:27;15.83;;;13.57;;
9374;SDS011;4727;51.202;6.344;2023-03-01T06:11:01;14.83;;;13.27;;
9374;SDS011;4727;51.202;6.344;2023-03-01T06:13:54;17.43;;;14.03;;
9374;SDS011;4727;51.202;6.344;2023-03-01T06:16:52;14.60;;;13.00;;
9374;SDS011;4727;51.202;6.344;2023-03-01T06:19:27;18.37;;;13.67;;
9374;SDS011;4727;51.202;6.344;2023-03-01T06:22:02;16.40;;;13.47;;
9374;SDS011;4727;51.202;6.344;2023-03-01T06:24:33;18.97;;;15.07;;
9374;SDS011;4727;51.202;6.344;2023-03-01T06:27:05;17.37;;;14.20;;
9374;SDS011;4727;51.202;6.344;2023-03-01T06:29:45;14.97;;;12.80;;
9374;SDS011;4727;51.202;6.344;2023-03-01T06:32:17;16.50;;;13.23;;
9374;SDS011;4727;51.202;6.344;2023-03-01T06:35:15;16.80;;;13.23;;
9374;SDS011;4727;51.202;6.344;2023-03-01T06:37:47;16.73;;;13.60;;
9374;SDS011;4727;51.202;6.344;2023-03-01T06:40:24;15.80;;;14.20;;
9374;SDS011;4727;51.202;6.344;2023-03-01T06:42:53;16.83;;;14.03;;
9374;SDS011;4727;51.202;6.344;2023-03-01T06:45:22;16.00;;;13.23;;
9374;SDS011;4727;51.202;6.344;2023-03-01T06:50:46;15.97;;;13.57;;
9374;SDS011;4727;51.202;6.344;2023-03-01T06:53:14;19.73;;;13.57;;
9374;SDS011;4727;51.202;6.344;2023-03-01T07:01:39;15.67;;;13.53;;
9374;SDS011;4727;51.202;6.344;2023-03-01T07:07:11;22.63;;;17.23;;
9374;SDS011;4727;51.202;6.344;2023-03-01T07:09:49;20.10;;;14.57;;
9374;SDS011;4727;51.202;6.344;2023-03-01T07:12:36;16.30;;;14.53;;
9374;SDS011;4727;51.202;6.344;2023-03-01T07:15:17;15.93;;;14.23;;
9374;SDS011;4727;51.202;6.344;2023-03-01T07:17:57;19.07;;;13.27;;
9374;SDS011;4727;51.202;6.344;2023-03-01T07:23:27;17.73;;;14.77;;
9374;SDS011;4727;51.202;6.344;2023-03-01T07:26:16;18.47;;;13.83;;
9374;SDS011;4727;51.202;6.344;2023-03-01T07:28:50;22.17;;;15.37;;
9374;SDS011;4727;51.202;6.344;2023-03-01T07:31:28;19.07;;;13.97;;
9374;SDS011;4727;51.202;6.344;2023-03-01T07:34:05;17.10;;;14.57;;
9374;SDS011;4727;51.202;6.344;2023-03-01T07:39:37;16.10;;;14.13;;
9374;SDS011;4727;51.202;6.344;2023-03-01T07:42:10;16.20;;;13.43;;
9374;SDS011;4727;51.202;6.344;2023-03-01T07:44:59;18.43;;;13.30;;
9374;SDS011;4727;51.202;6.344;2023-03-01T07:47:37;14.60;;;12.97;;
9374;SDS011;4727;51.202;6.344;2023-03-01T07:50:12;16.67;;;14.50;;
9374;SDS011;4727;51.202;6.344;2023-03-01T07:52:50;18.00;;;14.17;;
9374;SDS011;4727;51.202;6.344;2023-03-01T07:55:18;14.73;;;13.23;;
9374;SDS011;4727;51.202;6.344;2023-03-01T07:57:49;15.00;;;12.67;;
9374;SDS011;4727;51.202;6.344;2023-03-01T08:00:29;15.83;;;14.07;;
9374;SDS011;4727;51.202;6.344;2023-03-01T08:03:00;17.50;;;13.50;;
9374;SDS011;4727;51.202;6.344;2023-03-01T08:08:29;15.53;;;13.20;;
9374;SDS011;4727;51.202;6.344;2023-03-01T08:11:05;15.57;;;13.43;;
9374;SDS011;4727;51.202;6.344;2023-03-01T08:13:48;20.53;;;14.37;;
9374;SDS011;4727;51.202;6.344;2023-03-01T08:16:25;17.43;;;13.37;;
9374;SDS011;4727;51.202;6.344;2023-03-01T08:18:53;16.10;;;13.17;;
9374;SDS011;4727;51.202;6.344;2023-03-01T08:21:35;15.30;;;13.40;;
9374;SDS011;4727;51.202;6.344;2023-03-01T08:24:11;16.83;;;13.63;;
9374;SDS011;4727;51.202;6.344;2023-03-01T08:26:40;18.00;;;13.90;;
9374;SDS011;4727;51.202;6.344;2023-03-01T08:31:51;16.97;;;13.20;;
9374;SDS011;4727;51.202;6.344;2023-03-01T08:34:19;16.27;;;13.83;;
9374;SDS011;4727;51.202;6.344;2023-03-01T08:36:48;16.57;;;13.43;;
9374;SDS011;4727;51.202;6.344;2023-03-01T08:39:22;15.47;;;13.47;;
9374;SDS011;4727;51.202;6.344;2023-03-01T08:41:53;16.97;;;13.50;;
9374;SDS011;4727;51.202;6.344;2023-03-01T08:44:21;15.40;;;12.23;;
9374;SDS011;4727;51.202;6.344;2023-03-01T08:46:50;15.13;;;12.83;;
9374;SDS011;4727;51.202;6.344;2023-03-01T08:49:22;15.47;;;12.40;;
9374;SDS011;4727;51.202;6.344;2023-03-01T08:51:51;16.57;;;12.70;;
9374;SDS011;4727;51.202;6.344;2023-03-01T08:54:23;18.03;;;12.80;;
9374;SDS011;4727;51.202;6.344;2023-03-01T08:56:51;13.77;;;12.10;;
9374;SDS011;4727;51.202;6.344;2023-03-01T08:59:17;14.27;;;12.40;;
9374;SDS011;4727;51.202;6.344;2023-03-01T09:01:45;14.13;;;11.73;;
9374;SDS011;4727;51.202;6.344;2023-03-01T09:04:14;17.57;;;12.60;;
9374;SDS011;4727;51.202;6.344;2023-03-01T09:06:41;17.13;;;12.87;;
9374;SDS011;4727;51.202;6.344;2023-03-01T09:09:14;14.93;;;12.43;;
9374;SDS011;4727;51.202;6.344;2023-03-01T09:11:43;16.23;;;12.67;;
9374;SDS011;4727;51.202;6.344;2023-03-01T09:14:19;13.10;;;11.80;;
9374;SDS011;4727;51.202;6.344;2023-03-01T09:16:51;13.97;;;11.93;;
9374;SDS011;4727;51.202;6.344;2023-03-01T09:19:17;15.63;;;12.43;;
9374;SDS011;4727;51.202;6.344;2023-03-01T09:21:45;16.97;;;12.80;;
9374;SDS011;4727;51.202;6.344;2023-03-01T09:24:24;18.43;;;13.97;;
9374;SDS011;4727;51.202;6.344;2023-03-01T09:26:53;14.77;;;12.97;;
9374;SDS011;4727;51.202;6.344;2023-03-01T09:29:26;15.80;;;11.93;;
9374;SDS011;4727;51.202;6.344;2023-03-01T09:32:05;14.67;;;12.17;;
9374;SDS011;4727;51.202;6.344;2023-03-01T09:34:34;13.20;;;10.87;;
9374;SDS011;4727;51.202;6.344;2023-03-01T09:37:20;16.07;;;13.53;;
9374;SDS011;4727;51.202;6.344;2023-03-01T09:39:48;19.40;;;14.40;;
9374;SDS011;4727;51.202;6.344;2023-03-01T09:42:23;14.97;;;13.17;;
9374;SDS011;4727;51.202;6.344;2023-03-01T09:47:37;14.43;;;12.13;;
9374;SDS011;4727;51.202;6.344;2023-03-01T09:50:06;15.30;;;13.57;;
9374;SDS011;4727;51.202;6.344;2023-03-01T09:52:38;14.23;;;12.67;;
9374;SDS011;4727;51.202;6.344;2023-03-01T09:55:08;18.50;;;13.40;;
9374;SDS011;4727;51.202;6.344;2023-03-01T09:57:54;14.77;;;12.30;;
9374;SDS011;4727;51.202;6.344;2023-03-01T10:00:42;15.53;;;12.70;;
9374;SDS011;4727;51.202;6.344;2023-03-01T10:03:13;14.40;;;11.97;;
9374;SDS011;4727;51.202;6.344;2023-03-01T10:06:16;14.47;;;12.10;;
9374;SDS011;4727;51.202;6.344;2023-03-01T10:08:40;15.03;;;12.60;;
9374;SDS011;4727;51.202;6.344;2023-03-01T10:11:24;17.70;;;13.23;;
9374;SDS011;4727;51.202;6.344;2023-03-01T10:13:55;16.83;;;12.10;;
9374;SDS011;4727;51.202;6.344;2023-03-01T10:19:04;14.17;;;12.37;;
9374;SDS011;4727;51.202;6.344;2023-03-01T10:21:42;15.23;;;11.80;;
9374;SDS011;4727;51.202;6.344;2023-03-01T10:24:15;13.07;;;11.23;;
9374;SDS011;4727;51.202;6.344;2023-03-01T10:27:34;19.17;;;13.30;;
9374;SDS011;4727;51.202;6.344;2023-03-01T10:29:57;17.43;;;13.43;;
9374;SDS011;4727;51.202;6.344;2023-03-01T10:32:27;15.13;;;11.97;;
9374;SDS011;4727;51.202;6.344;2023-03-01T10:34:54;16.20;;;13.43;;
9374;SDS011;4727;51.202;6.344;2023-03-01T10:37:26;15.63;;;12.07;;
9374;SDS011;4727;51.202;6.344;2023-03-01T10:39:58;13.60;;;11.83;;
9374;SDS011;4727;51.202;6.344;2023-03-01T10:42:34;13.43;;;12.03;;
9374;SDS011;4727;51.202;6.344;2023-03-01T10:47:48;15.20;;;11.10;;
9374;SDS011;4727;51.202;6.344;2023-03-01T10:50:30;10.90;;;9.73;;
9374;SDS011;4727;51.202;6.344;2023-03-01T10:53:04;14.30;;;11.13;;
9374;SDS011;4727;51.202;6.344;2023-03-01T10:55:34;14.80;;;11.37;;
9374;SDS011;4727;51.202;6.344;2023-03-01T10:58:08;13.50;;;11.30;;
9374;SDS011;4727;51.202;6.344;2023-03-01T11:00:45;11.57;;;10.40;;
9374;SDS011;4727;51.202;6.344;2023-03-01T11:03:13;15.33;;;10.97;;
9374;SDS011;4727;51.202;6.344;2023-03-01T11:08:30;12.77;;;11.43;;
9374;SDS011;4727;51.202;6.344;2023-03-01T11:13:59;13.73;;;11.43;;
9374;SDS011;4727;51.202;6.344;2023-03-01T11:16:27;11.77;;;10.10;;
9374;SDS011;4727;51.202;6.344;2023-03-01T11:19:03;12.67;;;10.87;;
9374;SDS011;4727;51.202;6.344;2023-03-01T11:21:30;12.43;;;11.13;;
9374;SDS011;4727;51.202;6.344;2023-03-01T11:24:00;15.13;;;12.50;;
9374;SDS011;4727;51.202;6.344;2023-03-01T11:26:30;16.20;;;11.83;;
9374;SDS011;4727;51.202;6.344;2023-03-01T11:29:04;12.20;;;10.90;;
9374;SDS011;4727;51.202;6.344;2023-03-01T11:31:33;15.30;;;11.10;;
9374;SDS011;4727;51.202;6.344;2023-03-01T11:34:07;12.53;;;10.93;;
9374;SDS011;4727;51.202;6.344;2023-03-01T11:42:09;15.03;;;10.87;;
9374;SDS011;4727;51.202;6.344;2023-03-01T11:44:37;12.37;;;10.83;;
9374;SDS011;4727;51.202;6.344;2023-03-01T11:47:25;14.43;;;11.73;;
9374;SDS011;4727;51.202;6.344;2023-03-01T11:50:06;12.27;;;11.00;;
9374;SDS011;4727;51.202;6.344;2023-03-01T11:52:43;15.17;;;11.57;;
9374;SDS011;4727;51.202;6.344;2023-03-01T11:57:57;12.37;;;11.07;;
9374;SDS011;4727;51.202;6.344;2023-03-01T12:00:36;14.17;;;10.73;;
9374;SDS011;4727;51.202;6.344;2023-03-01T12:11:07;12.23;;;10.40;;
9374;SDS011;4727;51.202;6.344;2023-03-01T12:13:48;12.43;;;10.63;;
9374;SDS011;4727;51.202;6.344;2023-03-01T12:19:01;11.53;;;10.33;;
9374;SDS011;4727;51.202;6.344;2023-03-01T12:26:35;11.37;;;9.60;;
9374;SDS011;4727;51.202;6.344;2023-03-01T12:34:22;14.47;;;10.00;;
9374;SDS011;4727;51.202;6.344;2023-03-01T12:39:46;10.83;;;8.90;;
9374;SDS011;4727;51.202;6.344;2023-03-01T12:42:34;10.00;;;9.07;;
9374;SDS011;4727;51.202;6.344;2023-03-01T12:45:12;9.47;;;8.57;;
9374;SDS011;4727;51.202;6.344;2023-03-01T12:47:55;10.83;;;9.23;;
9374;SDS011;4727;51.202;6.344;2023-03-01T12:50:26;14.63;;;9.47;;
9374;SDS011;4727;51.202;6.344;2023-03-01T12:52:57;10.50;;;8.53;;
9374;SDS011;4727;51.202;6.344;2023-03-01T12:55:33;11.47;;;9.23;;
9374;SDS011;4727;51.202;6.344;2023-03-01T12:58:05;10.10;;;8.00;;
9374;SDS011;4727;51.202;6.344;2023-03-01T13:08:38;8.53;;;7.57;;
9374;SDS011;4727;51.202;6.344;2023-03-01T13:11:06;10.23;;;8.40;;
9374;SDS011;4727;51.202;6.344;2023-03-01T13:13:37;10.70;;;7.93;;
9374;SDS011;4727;51.202;6.344;2023-03-01T13:16:38;8.20;;;7.37;;
9374;SDS011;4727;51.202;6.344;2023-03-01T13:21:40;9.23;;;6.77;;
9374;SDS011;4727;51.202;6.344;2023-03-01T13:29:30;9.90;;;7.60;;
9374;SDS011;4727;51.202;6.344;2023-03-01T13:32:18;7.30;;;6.60;;
9374;SDS011;4727;51.202;6.344;2023-03-01T13:34:53;9.10;;;7.33;;
9374;SDS011;4727;51.202;6.344;2023-03-01T13:37:21;8.97;;;7.70;;
9374;SDS011;4727;51.202;6.344;2023-03-01T13:39:47;8.47;;;6.87;;
9374;SDS011;4727;51.202;6.344;2023-03-01T13:42:33;9.77;;;7.37;;
9374;SDS011;4727;51.202;6.344;2023-03-01T13:45:02;8.37;;;6.40;;
9374;SDS011;4727;51.202;6.344;2023-03-01T13:47:28;7.50;;;6.70;;
9374;SDS011;4727;51.202;6.344;2023-03-01T13:50:00;8.70;;;6.77;;
9374;SDS011;4727;51.202;6.344;2023-03-01T13:55:13;8.73;;;7.53;;
9374;SDS011;4727;51.202;6.344;2023-03-01T13:57:42;8.67;;;7.47;;
9374;SDS011;4727;51.202;6.344;2023-03-01T14:00:28;8.00;;;6.70;;
9374;SDS011;4727;51.202;6.344;2023-03-01T14:03:13;7.50;;;6.80;;
9374;SDS011;4727;51.202;6.344;2023-03-01T14:05:40;8.27;;;6.77;;
9374;SDS011;4727;51.202;6.344;2023-03-01T14:08:40;7.40;;;6.70;;
9374;SDS011;4727;51.202;6.344;2023-03-01T14:13:38;9.67;;;7.63;;
9374;SDS011;4727;51.202;6.344;2023-03-01T14:19:09;9.50;;;7.63;;
9374;SDS011;4727;51.202;6.344;2023-03-01T14:21:38;10.87;;;7.67;;
9374;SDS011;4727;51.202;6.344;2023-03-01T14:24:04;8.03;;;7.23;;
9374;SDS011;4727;51.202;6.344;2023-03-01T14:26:30;8.57;;;7.40;;
9374;SDS011;4727;51.202;6.344;2023-03-01T14:28:57;10.17;;;7.80;;
9374;SDS011;4727;51.202;6.344;2023-03-01T14:33:55;9.60;;;7.60;;
9374;SDS011;4727;51.202;6.344;2023-03-01T14:36:26;7.80;;;7.10;;
9374;SDS011;4727;51.202;6.344;2023-03-01T14:38:52;8.33;;;7.50;;
9374;SDS011;4727;51.202;6.344;2023-03-01T14:41:20;11.30;;;8.20;;
9374;SDS011;4727;51.202;6.344;2023-03-01T14:43:54;10.70;;;8.37;;
9374;SDS011;4727;51.202;6.344;2023-03-01T14:46:26;8.43;;;7.57;;
9374;SDS011;4727;51.202;6.344;2023-03-01T14:48:56;8.17;;;7.37;;
9374;SDS011;4727;51.202;6.344;2023-03-01T14:51:23;8.43;;;7.60;;
9374;SDS011;4727;51.202;6.344;2023-03-01T14:53:50;9.07;;;7.50;;
9374;SDS011;4727;51.202;6.344;2023-03-01T14:56:16;7.67;;;6.90;;
9374;SDS011;4727;51.202;6.344;2023-03-01T14:58:43;8.17;;;7.37;;
9374;SDS011;4727;51.202;6.344;2023-03-01T15:01:14;7.60;;;6.73;;
9374;SDS011;4727;51.202;6.344;2023-03-01T15:03:41;9.23;;;7.33;;
9374;SDS011;4727;51.202;6.344;2023-03-01T15:06:11;8.40;;;7.20;;
9374;SDS011;4727;51.202;6.344;2023-03-01T15:08:41;8.67;;;7.33;;
9374;SDS011;4727;51.202;6.344;2023-03-01T15:13:40;8.40;;;7.57;;
9374;SDS011;4727;51.202;6.344;2023-03-01T15:16:10;7.50;;;6.70;;
9374;SDS011;4727;51.202;6.344;2023-03-01T15:18:37;9.27;;;7.40;;
9374;SDS011;4727;51.202;6.344;2023-03-01T15:21:09;10.30;;;7.80;;
9374;SDS011;4727;51.202;6.344;2023-03-01T15:23:36;10.10;;;7.87;;
9374;SDS011;4727;51.202;6.344;2023-03-01T15:26:02;8.57;;;7.73;;
9374;SDS011;4727;51.202;6.344;2023-03-01T15:28:32;9.23;;;8.20;;
9374;SDS011;4727;51.202;6.344;2023-03-01T15:31:03;8.87;;;7.97;;
9374;SDS011;4727;51.202;6.344;2023-03-01T15:33:32;8.43;;;7.63;;
9374;SDS011;4727;51.202;6.344;2023-03-01T15:35:59;8.03;;;7.23;;
9374;SDS011;4727;51.202;6.344;2023-03-01T15:38:34;9.40;;;8.40;;
9374;SDS011;4727;51.202;6.344;2023-03-01T15:41:05;8.80;;;7.93;;
9374;SDS011;4727;51.202;6.344;2023-03-01T15:43:44;9.13;;;7.63;;
9374;SDS011;4727;51.202;6.344;2023-03-01T15:46:29;8.97;;;8.07;;
9374;SDS011;4727;51.202;6.344;2023-03-01T15:49:04;9.13;;;8.13;;
9374;SDS011;4727;51.202;6.344;2023-03-01T15:53:58;8.53;;;7.73;;
9374;SDS011;4727;51.202;6.344;2023-03-01T15:56:24;9.17;;;8.27;;
9374;SDS011;4727;51.202;6.344;2023-03-01T15:58:50;9.53;;;8.57;;
9374;SDS011;4727;51.202;6.344;2023-03-01T16:01:16;8.90;;;7.93;;
9374;SDS011;4727;51.202;6.344;2023-03-01T16:03:43;8.33;;;7.53;;
9374;SDS011;4727;51.202;6.344;2023-03-01T16:06:12;9.67;;;8.07;;
9374;SDS011;4727;51.202;6.344;2023-03-01T16:08:38;8.30;;;7.40;;
9374;SDS011;4727;51.202;6.344;2023-03-01T16:11:05;9.80;;;7.47;;
9374;SDS011;4727;51.202;6.344;2023-03-01T16:13:34;11.93;;;8.60;;
9374;SDS011;4727;51.202;6.344;2023-03-01T16:16:00;11.30;;;8.83;;
9374;SDS011;4727;51.202;6.344;2023-03-01T16:18:26;9.60;;;8.47;;
9374;SDS011;4727;51.202;6.344;2023-03-01T16:20:52;10.37;;;7.80;;
9374;SDS011;4727;51.202;6.344;2023-03-01T16:23:19;10.37;;;8.10;;
9374;SDS011;4727;51.202;6.344;2023-03-01T16:25:46;10.00;;;8.27;;
9374;SDS011;4727;51.202;6.344;2023-03-01T16:28:12;12.83;;;8.97;;
9374;SDS011;4727;51.202;6.344;2023-03-01T16:30:44;10.80;;;8.50;;
9374;SDS011;4727;51.202;6.344;2023-03-01T16:33:11;10.03;;;8.10;;
9374;SDS011;4727;51.202;6.344;2023-03-01T16:35:39;9.90;;;8.40;;
9374;SDS011;4727;51.202;6.344;2023-03-01T16:38:05;9.63;;;8.10;;
9374;SDS011;4727;51.202;6.344;2023-03-01T16:40:31;10.30;;;8.40;;
9374;SDS011;4727;51.202;6.344;2023-03-01T16:42:57;10.17;;;8.20;;
9374;SDS011;4727;51.202;6.344;2023-03-01T16:45:25;11.17;;;8.37;;
9374;SDS011;4727;51.202;6.344;2023-03-01T16:47:52;11.00;;;8.23;;
9374;SDS011;4727;51.202;6.344;2023-03-01T16:50:18;9.93;;;7.80;;
9374;SDS011;4727;51.202;6.344;2023-03-01T16:52:44;9.30;;;8.23;;
9374;SDS011;4727;51.202;6.344;2023-03-01T16:55:10;9.73;;;8.67;;
9374;SDS011;4727;51.202;6.344;2023-03-01T16:57:37;11.47;;;8.53;;
9374;SDS011;4727;51.202;6.344;2023-03-01T17:00:07;11.87;;;8.70;;
9374;SDS011;4727;51.202;6.344;2023-03-01T17:02:37;11.70;;;8.60;;
9374;SDS011;4727;51.202;6.344;2023-03-01T17:05:03;12.57;;;8.93;;
9374;SDS011;4727;51.202;6.344;2023-03-01T17:07:30;9.77;;;8.63;;
9374;SDS011;4727;51.202;6.344;2023-03-01T17:09:58;9.40;;;8.37;;
9374;SDS011;4727;51.202;6.344;2023-03-01T17:12:24;12.83;;;8.77;;
9374;SDS011;4727;51.202;6.344;2023-03-01T17:14:50;10.97;;;8.87;;
9374;SDS011;4727;51.202;6.344;2023-03-01T17:17:16;12.27;;;8.67;;
9374;SDS011;4727;51.202;6.344;2023-03-01T17:19:43;11.47;;;8.50;;
9374;SDS011;4727;51.202;6.344;2023-03-01T17:22:10;9.30;;;7.43;;
9374;SDS011;4727;51.202;6.344;2023-03-01T17:24:38;9.70;;;8.03;;
9374;SDS011;4727;51.202;6.344;2023-03-01T17:27:04;13.20;;;8.73;;